createdAt,value
2022-12-31T00:01:27.021Z,9.40
2022-12-31T00:04:30.054Z,9.40
2022-12-31T00:10:41.391Z,9.40
2022-12-31T00:13:46.433Z,9.40
2022-12-31T00:16:49.444Z,9.40
2022-12-31T00:19:52.440Z,9.40
2022-12-31T00:22:56.996Z,9.40
2022-12-31T00:26:04.393Z,9.40
2022-12-31T00:29:07.506Z,9.40
2022-12-31T00:32:10.431Z,9.40
2022-12-31T00:35:13.493Z,9.40
2022-12-31T00:38:17.727Z,9.40
2022-12-31T00:41:22.915Z,9.40
2022-12-31T00:44:25.868Z,9.40
2022-12-31T00:47:28.801Z,9.40
2022-12-31T00:50:31.721Z,9.30
2022-12-31T00:53:36.179Z,9.30
2022-12-31T00:56:39.166Z,9.30
2022-12-31T00:59:42.135Z,9.20
2022-12-31T01:02:45.219Z,9.20
2022-12-31T01:05:48.289Z,9.20
2022-12-31T01:08:53.646Z,9.20
2022-12-31T01:11:56.527Z,9.20
2022-12-31T01:14:59.527Z,9.10
2022-12-31T01:18:02.710Z,9.20
2022-12-31T01:21:09.114Z,9.30
2022-12-31T01:24:14.072Z,9.30
2022-12-31T01:27:16.980Z,9.40
2022-12-31T01:30:19.926Z,9.50
2022-12-31T01:33:22.948Z,9.50
2022-12-31T01:36:27.886Z,9.50
2022-12-31T01:39:32.226Z,9.60
2022-12-31T01:42:35.167Z,9.60
2022-12-31T01:45:38.205Z,9.70
2022-12-31T01:48:41.326Z,9.70
2022-12-31T01:51:45.953Z,9.70
2022-12-31T01:54:54.922Z,9.80
2022-12-31T01:58:01.075Z,9.80
2022-12-31T02:01:04.438Z,9.80
2022-12-31T02:04:10.685Z,10.00
2022-12-31T02:07:13.980Z,10.00
2022-12-31T02:10:18.765Z,10.20
2022-12-31T02:13:21.873Z,10.20
2022-12-31T02:16:31.907Z,10.30
2022-12-31T02:19:59.607Z,10.40
2022-12-31T02:23:32.552Z,10.40
2022-12-31T02:27:02.896Z,10.40
2022-12-31T02:30:11.734Z,10.50
2022-12-31T02:33:18.224Z,10.60
2022-12-31T02:36:26.436Z,10.60
2022-12-31T02:39:31.182Z,10.60
2022-12-31T02:42:34.122Z,10.60
2022-12-31T02:45:41.122Z,10.60
2022-12-31T02:48:50.328Z,10.50
2022-12-31T02:52:02.110Z,10.50
2022-12-31T02:55:13.534Z,10.50
2022-12-31T02:58:43.717Z,10.50
2022-12-31T03:02:10.057Z,10.50
2022-12-31T03:05:15.271Z,10.60
2022-12-31T03:08:23.545Z,10.50
2022-12-31T03:11:46.370Z,10.50
2022-12-31T03:14:49.360Z,10.40
2022-12-31T03:17:56.685Z,10.40
2022-12-31T03:21:22.647Z,10.40
2022-12-31T03:24:43.183Z,10.30
2022-12-31T03:27:46.762Z,10.20
2022-12-31T03:30:53.251Z,10.30
2022-12-31T03:33:57.588Z,10.20
2022-12-31T03:37:00.513Z,10.20
2022-12-31T03:40:03.517Z,10.10
2022-12-31T03:43:06.506Z,10.10
2022-12-31T03:46:09.491Z,10.10
2022-12-31T03:49:13.835Z,10.10
2022-12-31T03:52:16.792Z,10.10
2022-12-31T03:55:20.028Z,10.20
2022-12-31T03:58:23.864Z,10.20
2022-12-31T04:01:26.836Z,10.20
2022-12-31T04:04:31.438Z,10.30
2022-12-31T04:07:34.663Z,10.30
2022-12-31T04:10:37.563Z,10.40
2022-12-31T04:13:40.491Z,10.50
2022-12-31T04:16:43.591Z,10.50
2022-12-31T04:19:47.925Z,10.50
2022-12-31T04:22:50.938Z,10.60
2022-12-31T04:25:54.935Z,10.70
2022-12-31T04:28:58.082Z,10.80
2022-12-31T04:32:01.046Z,10.90
2022-12-31T04:35:06.127Z,10.90
2022-12-31T04:38:09.093Z,10.90
2022-12-31T04:41:17.890Z,11.00
2022-12-31T04:44:20.879Z,11.00
2022-12-31T04:47:24.193Z,11.00
2022-12-31T04:50:28.565Z,11.00
2022-12-31T04:53:32.443Z,11.00
2022-12-31T04:56:36.573Z,11.00
2022-12-31T04:59:39.489Z,11.00
2022-12-31T05:02:42.619Z,11.10
2022-12-31T05:05:47.223Z,11.10
2022-12-31T05:08:51.186Z,11.10
2022-12-31T05:11:54.253Z,11.10
2022-12-31T05:14:57.144Z,11.20
2022-12-31T05:18:00.048Z,11.20
2022-12-31T05:21:04.580Z,11.30
2022-12-31T05:24:08.235Z,11.30
2022-12-31T05:27:12.386Z,11.40
2022-12-31T05:30:15.584Z,11.40
2022-12-31T05:33:18.937Z,11.40
2022-12-31T05:36:23.266Z,11.50
2022-12-31T05:39:26.235Z,11.50
2022-12-31T05:42:29.221Z,11.60
2022-12-31T05:45:32.087Z,11.60
2022-12-31T05:48:35.078Z,11.50
2022-12-31T05:51:39.595Z,11.40
2022-12-31T05:54:42.540Z,11.40
2022-12-31T05:57:45.462Z,11.40
2022-12-31T06:00:48.549Z,11.40
2022-12-31T06:03:51.563Z,11.40
2022-12-31T06:06:56.055Z,11.40
2022-12-31T06:09:58.947Z,11.40
2022-12-31T06:13:01.887Z,11.50
2022-12-31T06:16:07.568Z,11.40
2022-12-31T06:19:11.040Z,11.40
2022-12-31T06:22:15.512Z,11.50
2022-12-31T06:25:18.428Z,11.50
2022-12-31T06:28:21.412Z,11.50
2022-12-31T06:31:24.373Z,11.60
2022-12-31T06:34:27.396Z,11.60
2022-12-31T06:37:31.687Z,11.60
2022-12-31T06:40:34.598Z,11.70
2022-12-31T06:43:38.460Z,11.80
2022-12-31T06:46:41.606Z,11.90
2022-12-31T06:49:44.699Z,12.00
2022-12-31T06:52:49.075Z,12.00
2022-12-31T06:55:52.615Z,12.10
2022-12-31T06:58:56.176Z,12.30
2022-12-31T07:02:25.766Z,12.30
2022-12-31T07:05:36.691Z,12.30
2022-12-31T07:08:50.914Z,12.40
2022-12-31T07:12:03.299Z,12.40
2022-12-31T07:15:12.409Z,12.50
2022-12-31T07:18:25.054Z,12.60
2022-12-31T07:21:35.966Z,12.70
2022-12-31T07:24:41.037Z,12.80
2022-12-31T07:27:53.992Z,12.80
2022-12-31T07:31:06.142Z,12.80
2022-12-31T07:34:19.880Z,12.90
2022-12-31T07:37:32.466Z,13.00
2022-12-31T07:40:57.510Z,13.00
2022-12-31T07:44:07.628Z,13.10
2022-12-31T07:47:20.777Z,13.20
2022-12-31T07:50:24.347Z,13.30
2022-12-31T07:53:28.012Z,13.40
2022-12-31T07:56:32.700Z,13.40
2022-12-31T07:59:49.026Z,13.50
2022-12-31T08:03:14.384Z,13.60
2022-12-31T08:06:27.079Z,13.70
2022-12-31T08:09:45.165Z,13.70
2022-12-31T08:12:51.355Z,13.80
2022-12-31T08:15:54.954Z,13.80
2022-12-31T08:18:58.459Z,13.90
2022-12-31T08:22:23.683Z,13.90
2022-12-31T08:25:32.639Z,14.10
2022-12-31T08:28:57.258Z,14.10
2022-12-31T08:32:09.389Z,14.20
2022-12-31T08:35:26.887Z,14.30
2022-12-31T08:38:38.271Z,14.30
2022-12-31T08:41:43.989Z,14.40
2022-12-31T08:44:56.283Z,14.40
2022-12-31T08:48:04.172Z,14.40
2022-12-31T08:51:10.755Z,14.40
2022-12-31T08:54:14.432Z,14.50
2022-12-31T08:57:24.484Z,14.50
2022-12-31T09:00:29.929Z,14.60
2022-12-31T09:03:47.696Z,14.70
2022-12-31T09:06:57.353Z,14.70
2022-12-31T09:10:08.701Z,14.80
2022-12-31T09:13:17.989Z,14.90
2022-12-31T09:16:30.108Z,14.90
2022-12-31T09:19:33.092Z,14.90
2022-12-31T09:22:36.374Z,15.10
2022-12-31T09:25:46.504Z,15.10
2022-12-31T09:28:59.643Z,15.10
2022-12-31T09:32:13.257Z,15.20
2022-12-31T09:35:25.965Z,15.30
2022-12-31T09:38:36.345Z,15.50
2022-12-31T09:42:19.232Z,15.60
2022-12-31T09:45:58.004Z,15.80
2022-12-31T09:49:37.150Z,15.80
2022-12-31T09:52:53.284Z,15.90
2022-12-31T09:56:02.062Z,16.00
2022-12-31T09:59:13.939Z,16.00
2022-12-31T10:02:29.682Z,16.20
2022-12-31T10:05:57.964Z,16.40
2022-12-31T10:09:36.446Z,16.50
2022-12-31T10:13:03.139Z,16.50
2022-12-31T10:16:25.656Z,16.60
2022-12-31T10:19:53.056Z,16.50
2022-12-31T10:23:17.224Z,16.50
2022-12-31T10:26:29.283Z,16.50
2022-12-31T10:29:46.414Z,16.50
2022-12-31T10:33:00.530Z,16.40
2022-12-31T10:36:10.244Z,16.50
2022-12-31T10:39:24.801Z,16.60
2022-12-31T10:42:49.866Z,16.60
2022-12-31T10:46:26.803Z,16.70
2022-12-31T10:49:48.527Z,16.60
2022-12-31T10:53:19.104Z,16.60
2022-12-31T10:56:52.301Z,16.60
2022-12-31T11:00:15.043Z,16.60
2022-12-31T11:04:10.462Z,16.50
2022-12-31T11:07:42.172Z,16.40
2022-12-31T11:11:06.213Z,16.40
2022-12-31T11:14:44.097Z,16.40
2022-12-31T11:17:59.741Z,16.30
2022-12-31T11:21:28.196Z,16.30
2022-12-31T11:24:40.957Z,16.30
2022-12-31T11:28:02.613Z,16.30
2022-12-31T11:31:39.044Z,16.30
2022-12-31T11:35:30.193Z,16.30
2022-12-31T11:38:38.625Z,16.40
2022-12-31T11:41:50.496Z,16.40
2022-12-31T11:45:00.583Z,16.40
2022-12-31T11:48:30.285Z,16.40
2022-12-31T11:51:53.240Z,16.50
2022-12-31T11:55:22.784Z,16.60
2022-12-31T11:58:28.480Z,16.80
2022-12-31T12:01:37.233Z,16.80
2022-12-31T12:04:41.596Z,16.90
2022-12-31T12:07:44.700Z,16.90
2022-12-31T12:10:49.643Z,17.00
2022-12-31T12:13:52.867Z,17.00
2022-12-31T12:17:00.871Z,17.20
2022-12-31T12:20:19.633Z,17.20
2022-12-31T12:23:26.527Z,17.30
2022-12-31T12:26:34.920Z,17.40
2022-12-31T12:29:40.698Z,17.40
2022-12-31T12:32:53.474Z,17.50
2022-12-31T12:36:08.213Z,17.40
2022-12-31T12:39:21.750Z,17.40
2022-12-31T12:42:24.789Z,17.50
2022-12-31T12:45:30.432Z,17.40
2022-12-31T12:48:39.361Z,17.50
2022-12-31T12:52:01.683Z,17.60
2022-12-31T12:55:15.652Z,17.60
2022-12-31T12:58:35.325Z,17.50
2022-12-31T13:01:47.505Z,17.50
2022-12-31T13:05:11.240Z,17.40
2022-12-31T13:08:29.465Z,17.40
2022-12-31T13:11:43.937Z,17.40
2022-12-31T13:14:54.932Z,17.40
2022-12-31T13:18:10.977Z,17.50
2022-12-31T13:21:29.638Z,17.50
2022-12-31T13:24:53.506Z,17.50
2022-12-31T13:28:00.435Z,17.50
2022-12-31T13:31:07.602Z,17.60
2022-12-31T13:34:17.166Z,17.50
2022-12-31T13:37:28.343Z,17.50
2022-12-31T13:40:49.305Z,17.50
2022-12-31T13:43:58.400Z,17.50
2022-12-31T13:47:07.588Z,17.50
2022-12-31T13:50:19.979Z,17.50
2022-12-31T13:53:27.210Z,17.50
2022-12-31T13:56:37.388Z,17.60
2022-12-31T13:59:48.801Z,17.60
2022-12-31T14:03:04.290Z,17.60
2022-12-31T14:06:12.530Z,17.60
2022-12-31T14:09:21.510Z,17.50
2022-12-31T14:12:35.601Z,17.60
2022-12-31T14:15:44.185Z,17.60
2022-12-31T14:18:54.444Z,17.60
2022-12-31T14:22:05.431Z,17.50
2022-12-31T14:25:18.025Z,17.50
2022-12-31T14:28:27.182Z,17.50
2022-12-31T14:31:45.749Z,17.50
2022-12-31T14:34:57.276Z,17.50
2022-12-31T14:38:06.391Z,17.50
2022-12-31T14:41:21.357Z,17.30
2022-12-31T14:44:37.867Z,17.30
2022-12-31T14:47:51.267Z,17.30
2022-12-31T14:50:54.736Z,17.30
2022-12-31T14:53:59.092Z,17.30
2022-12-31T14:57:11.709Z,17.30
2022-12-31T15:00:32.703Z,17.30
2022-12-31T15:03:45.031Z,17.20
2022-12-31T15:06:58.721Z,17.10
2022-12-31T15:10:13.157Z,17.10
2022-12-31T15:13:26.340Z,17.10
2022-12-31T15:16:43.059Z,17.00
2022-12-31T15:20:18.829Z,16.90
2022-12-31T15:23:24.189Z,16.80
2022-12-31T15:26:31.184Z,16.80
2022-12-31T15:29:37.545Z,16.80
2022-12-31T15:32:44.231Z,16.80
2022-12-31T15:35:51.667Z,16.70
2022-12-31T15:39:24.243Z,16.70
2022-12-31T15:42:49.119Z,16.70
2022-12-31T15:45:54.048Z,16.60
2022-12-31T15:49:05.955Z,16.80
2022-12-31T15:52:18.196Z,16.80
2022-12-31T15:55:27.614Z,16.70
2022-12-31T15:58:35.682Z,16.70
2022-12-31T16:01:41.280Z,16.60
2022-12-31T16:04:45.895Z,16.60
2022-12-31T16:07:49.421Z,16.50
2022-12-31T16:10:54.509Z,16.50
2022-12-31T16:13:59.602Z,16.50
2022-12-31T16:17:02.971Z,16.50
2022-12-31T16:23:37.469Z,16.50
2022-12-31T16:26:47.461Z,16.50
2022-12-31T16:29:58.412Z,16.50
2022-12-31T16:33:03.490Z,16.50
2022-12-31T16:36:06.875Z,16.60
2022-12-31T16:39:29.552Z,16.60
2022-12-31T16:42:32.481Z,16.60
2022-12-31T16:45:38.564Z,16.70
2022-12-31T16:48:41.637Z,16.70
2022-12-31T16:51:45.292Z,16.70
2022-12-31T16:54:49.623Z,16.80
2022-12-31T16:57:55.819Z,16.90
2022-12-31T17:01:09.559Z,16.90
2022-12-31T17:04:18.415Z,17.00
2022-12-31T17:07:40.206Z,17.00
2022-12-31T17:10:46.611Z,17.00
2022-12-31T17:13:56.152Z,17.00
2022-12-31T17:17:03.801Z,17.10
2022-12-31T17:20:09.872Z,17.10
2022-12-31T17:23:23.743Z,17.00
2022-12-31T17:26:30.301Z,17.00
2022-12-31T17:29:34.453Z,17.00
2022-12-31T17:32:38.815Z,17.10
2022-12-31T17:35:43.524Z,17.00
2022-12-31T17:38:46.456Z,17.00
2022-12-31T17:41:52.357Z,17.10
2022-12-31T17:44:57.887Z,17.10
2022-12-31T17:48:00.921Z,17.10
2022-12-31T17:51:03.938Z,17.10
2022-12-31T17:54:12.979Z,17.10
2022-12-31T17:57:26.673Z,17.10
2022-12-31T18:00:29.756Z,17.10
2022-12-31T18:03:32.716Z,17.10
2022-12-31T18:06:35.649Z,17.10
2022-12-31T18:09:38.529Z,17.10
2022-12-31T18:12:43.660Z,17.10
2022-12-31T18:15:47.142Z,17.10
2022-12-31T18:18:50.755Z,17.00
2022-12-31T18:21:53.786Z,17.00
2022-12-31T18:24:56.745Z,17.00
2022-12-31T18:28:01.148Z,16.90
2022-12-31T18:31:04.465Z,16.80
2022-12-31T18:34:07.456Z,16.80
2022-12-31T18:37:19.545Z,16.80
2022-12-31T18:40:24.841Z,16.70
2022-12-31T18:43:29.137Z,16.70
2022-12-31T18:46:32.094Z,16.80
2022-12-31T18:49:34.972Z,16.80
2022-12-31T18:52:37.889Z,16.90
2022-12-31T18:55:42.425Z,16.90
2022-12-31T18:58:47.312Z,16.90
2022-12-31T19:01:50.551Z,16.80
2022-12-31T19:04:53.580Z,16.80
2022-12-31T19:07:57.222Z,16.70
2022-12-31T19:11:00.194Z,16.80
2022-12-31T19:14:04.676Z,16.70
2022-12-31T19:20:09.843Z,16.60
2022-12-31T19:23:17.772Z,16.50
2022-12-31T19:26:22.903Z,16.40
2022-12-31T19:29:29.627Z,16.50
2022-12-31T19:32:32.626Z,16.40
2022-12-31T19:35:35.592Z,16.30
2022-12-31T19:38:38.574Z,16.30
2022-12-31T19:41:43.207Z,16.30
2022-12-31T19:44:47.521Z,16.20
2022-12-31T19:47:50.989Z,16.20
2022-12-31T19:50:55.190Z,16.30
2022-12-31T19:53:58.176Z,16.30
2022-12-31T19:57:01.243Z,16.30
2022-12-31T20:00:06.975Z,16.30
2022-12-31T20:03:12.048Z,16.30
2022-12-31T20:06:15.155Z,16.30
2022-12-31T20:09:18.185Z,16.30
2022-12-31T20:12:21.170Z,16.40
2022-12-31T20:15:25.522Z,16.30
2022-12-31T20:18:28.505Z,16.30
2022-12-31T20:21:31.475Z,16.30
2022-12-31T20:24:34.411Z,16.30
2022-12-31T20:27:38.495Z,16.20
2022-12-31T20:30:42.869Z,16.20
2022-12-31T20:33:45.986Z,16.20
2022-12-31T20:36:49.080Z,16.30
2022-12-31T20:39:52.069Z,16.30
2022-12-31T20:42:55.020Z,16.30
2022-12-31T20:45:59.428Z,16.30
2022-12-31T20:49:04.801Z,16.30
2022-12-31T20:52:07.921Z,16.30
2022-12-31T20:55:13.682Z,16.30
2022-12-31T20:58:16.987Z,16.30
2022-12-31T21:01:21.479Z,16.30
2022-12-31T21:04:24.628Z,16.30
2022-12-31T21:07:27.711Z,16.30
2022-12-31T21:10:30.656Z,16.40
2022-12-31T21:13:32.587Z,16.40
2022-12-31T21:16:37.069Z,16.40
2022-12-31T21:19:40.001Z,16.40
2022-12-31T21:22:42.898Z,16.40
2022-12-31T21:25:46.287Z,16.30
2022-12-31T21:28:49.218Z,16.20
2022-12-31T21:31:53.572Z,16.30
2022-12-31T21:35:31.503Z,16.30
2022-12-31T21:38:19.545Z,16.30
2022-12-31T21:41:39.882Z,16.30
2022-12-31T21:44:42.854Z,16.30
2022-12-31T21:48:04.445Z,16.30
2022-12-31T21:51:09.763Z,16.40
2022-12-31T21:54:32.717Z,16.40
2022-12-31T21:57:59.045Z,16.40
2022-12-31T22:01:16.311Z,16.40
2022-12-31T22:04:59.798Z,16.30
2022-12-31T22:07:43.711Z,16.30
2022-12-31T22:10:52.390Z,16.30
2022-12-31T22:13:56.684Z,16.30
2022-12-31T22:16:59.641Z,16.30
2022-12-31T22:23:26.889Z,16.30
2022-12-31T22:26:30.383Z,16.30
2022-12-31T22:29:33.603Z,16.30
2022-12-31T22:32:36.547Z,16.30
2022-12-31T22:35:40.870Z,16.30
2022-12-31T22:38:44.331Z,16.20
2022-12-31T22:41:47.209Z,16.20
2022-12-31T22:44:50.194Z,16.20
2022-12-31T22:47:54.006Z,16.20
2022-12-31T22:50:58.905Z,16.20
2022-12-31T22:54:01.895Z,16.20
2022-12-31T22:57:04.958Z,16.10
2022-12-31T23:00:13.706Z,16.20
2022-12-31T23:03:16.907Z,16.20
2022-12-31T23:06:21.709Z,16.20
2022-12-31T23:09:42.168Z,16.10
2022-12-31T23:12:45.049Z,16.00
2022-12-31T23:16:05.664Z,16.00
2022-12-31T23:19:27.918Z,16.00
2022-12-31T23:22:49.612Z,16.00
2022-12-31T23:25:53.319Z,15.90
2022-12-31T23:28:56.350Z,15.90
2022-12-31T23:31:59.325Z,15.80
2022-12-31T23:35:09.266Z,15.80
2022-12-31T23:38:16.607Z,15.80
2022-12-31T23:41:21.287Z,15.80
2022-12-31T23:44:24.209Z,15.90
2022-12-31T23:47:27.140Z,15.80
2022-12-31T23:50:30.122Z,15.80
2022-12-31T23:53:34.786Z,15.90
2022-12-31T23:56:37.806Z,16.00
2022-12-31T23:59:40.697Z,15.90
